EDT,Max TemperatureF,Mean TemperatureF,Min TemperatureF,Max Dew PointF,MeanDew PointF,Min DewpointF,Max Humidity, Mean Humidity, Min Humidity, Max Sea Level PressureIn, Mean Sea Level PressureIn, Min Sea Level PressureIn, Max VisibilityMiles, Mean VisibilityMiles, Min VisibilityMiles, Max Wind SpeedMPH, Mean Wind SpeedMPH, Max Gust SpeedMPH,PrecipitationIn, CloudCover, Events, WindDirDegrees
2013-8-1,71,68,64,70,65,61,100,88,73,30.04,29.91,29.83,10,7,1,7,3,,1.17,6,,158
2013-8-2,82,73,64,68,64,59,100,73,48,29.94,29.90,29.83,10,8,1,12,2,16,0.00,3,,251
2013-8-3,77,70,62,66,63,63,100,82,61,29.95,29.91,29.89,10,10,7,8,2,,0.03,2,,250
2013-8-4,77,68,59,63,58,52,100,72,41,30.01,29.92,29.88,10,8,2,13,3,17,0.00,1,,302
2013-8-5,75,64,53,61,53,46,100,72,41,30.10,30.05,30.01,10,10,7,7,2,,0.00,0,,305
2013-8-6,77,65,53,63,58,52,100,80,47,30.12,30.09,30.05,10,9,4,9,2,,0.01,3,,173
2013-8-7,75,70,64,68,66,63,100,87,69,30.13,30.09,30.05,10,9,5,9,3,9,0.00,7,,142
2013-8-8,84,76,68,73,70,66,100,82,66,30.06,30.03,29.99,10,9,3,13,5,,0.07,5,,190
2013-8-9,82,78,73,75,72,70,100,85,70,30.00,29.90,29.83,10,9,3,12,6,17,0.05,5,,220
2013-8-10,80,73,66,72,65,61,94,76,51,30.06,30.00,29.89,10,10,7,7,2,,0.00,0,,286
2013-8-11,82,70,59,66,60,55,100,71,47,30.14,30.08,30.03,10,9,0,9,2,,0.00,0,,207
2013-8-12,82,74,66,70,66,63,100,80,51,30.03,29.98,29.93,10,8,2,8,1,,0.00,2,,24
2013-8-13,78,71,64,70,66,63,100,85,61,29.92,29.79,29.72,10,7,0,9,2,16,2.57,4,,310
2013-8-14,71,62,53,63,52,46,100,65,46,30.08,29.92,29.79,10,10,10,13,5,22,0.00,1,,309
2013-8-15,75,62,50,59,51,46,100,73,38,30.17,30.13,30.08,10,10,3,7,1,,0.00,0,,309
2013-8-16,78,64,50,63,54,48,100,72,36,30.21,30.17,30.14,10,8,0,6,1,,0.00,0,,170
2013-8-17,80,66,53,61,56,52,100,74,39,30.28,30.25,30.21,10,8,1,8,1,,0.00,1,,123
2013-8-18,73,66,60,63,60,54,100,82,50,30.26,30.21,30.15,10,9,4,7,1,,0.02,1,,39
2013-8-19,75,68,60,64,61,59,100,83,61,30.16,30.11,30.07,10,9,2,7,1,,0.00,0,,265
2013-8-20,84,72,59,68,63,59,100,79,48,30.16,30.12,30.08,10,7,0,7,1,,0.00,1,,277
2013-8-21,86,72,59,70,64,59,100,75,40,30.20,30.15,30.07,10,7,0,7,1,,0.00,2,,244
2013-8-22,80,76,71,72,70,68,100,83,65,30.09,29.99,29.90,10,9,2,9,4,,0.24,3,,230
2013-8-23,73,66,60,68,62,57,100,79,61,30.11,30.00,29.92,10,10,5,7,2,,0.00,0,,318
2013-8-24,78,66,53,59,54,46,100,67,32,30.36,30.26,30.11,10,10,7,9,2,,0.00,1,,46
2013-8-25,78,64,50,59,54,50,100,70,39,30.42,30.34,30.26,10,8,1,7,1,,0.00,0,,228
2013-8-26,82,71,60,64,60,54,82,65,51,30.27,30.12,29.95,10,10,10,13,5,17,0.00,0,,233
2013-8-27,86,77,68,70,65,64,94,71,48,29.94,29.90,29.87,10,10,5,8,4,,0.00,2,,287
2013-8-28,73,68,64,72,68,63,100,95,88,29.91,29.87,29.84,7,3,0,6,0,,0.04,4,,79
2013-8-29,80,74,68,70,68,63,100,87,65,30.03,29.97,29.88,10,6,1,9,3,,0.01,5,,72
2013-8-30,80,73,66,70,67,63,94,82,69,30.04,29.97,29.88,10,9,5,9,3,,0.47,4,,223
2013-8-31,84,76,69,72,70,68,94,80,66,29.90,29.85,29.80,10,9,5,8,5,,0.00,4,,208